Whaley, Texas
Current Conditions -  °F | °C
As of 3:53 AM on Sunday 21 Dec 2014 (Local Time) from KTXK Reporting Station
Moderate Fog Moderate Fog  
Wind Chill: 35°   Ceiling: Unl
Heat Index: 35°   Visibility: 0.5mi
Dew Point: 35°   Wind: 3mph
Humidity: 100%   Direction: 40°NE
Pressure: 30.18"   Gusts: NA
Location:  33.4799°N, 94.4582°W
Report Text: KTXK 210953Z AUTO 04003KT 1/2SM FG CLR 02/02 A3018 RMK AO2 SLP218 T00170017
Loading
Personal Weather Stations






























Interactive Weather Map New forecast layout! Learn more

10-Day Weather Forecast

Advertisements
Track Severe Weather on mobile